Time;durP1;ratioP1;P1;durP2;ratioP2;P2;SDS_P1;SDS_P2;PMS_P1;PMS_P2;Temp;Humidity;BMP_temperature;BMP_pressure;BME280_temperature;BME280_humidity;BME280_pressure;Samples;Min_cycle;Max_cycle;Signal;HPM_P1;HPM_P2
2022/09/17 00:00:42;;;;;;;17.77;9.25;;;;;;;;;;5033706;28;20445;-71
2022/09/17 00:03:09;;;;;;;17.30;9.18;;;;;;;;;;5033924;28;20053;-70
2022/09/17 00:05:38;;;;;;;15.93;8.50;;;;;;;;;;5033641;28;20631;-71
2022/09/17 00:08:09;;;;;;;17.52;8.90;;;;;;;;;;5047473;28;20056;-71
2022/09/17 00:10:40;;;;;;;14.85;8.50;;;;;;;;;;5042062;28;20103;-70
2022/09/17 00:13:07;;;;;;;21.15;9.10;;;17.00;99.90;;;;;;5038401;28;20091;-70
2022/09/17 00:15:42;;;;;;;14.30;8.77;;;16.10;99.90;;;;;;5033555;28;20025;-71
2022/09/17 00:18:08;;;;;;;18.38;7.80;;;16.10;99.90;;;;;;5033346;28;20099;-70
2022/09/17 00:20:42;;;;;;;12.75;6.40;;;16.20;99.90;;;;;;5039135;28;20013;-70
2022/09/17 00:23:08;;;;;;;13.57;9.02;;;16.20;99.90;;;;;;5040513;28;20039;-68
2022/09/17 00:25:38;;;;;;;13.13;7.78;;;16.10;99.90;;;;;;5044417;28;20028;-69
2022/09/17 00:28:04;;;;;;;15.45;9.50;;;16.00;99.90;;;;;;5050668;28;20032;-71
2022/09/17 00:30:30;;;;;;;15.98;8.68;;;15.90;99.90;;;;;;5042253;28;20442;-69
2022/09/17 00:32:56;;;;;;;18.13;8.77;;;15.90;99.90;;;;;;5041399;28;20039;-69
2022/09/17 00:35:23;;;;;;;16.55;9.32;;;15.90;99.90;;;;;;5041594;28;20113;-69
2022/09/17 00:37:49;;;;;;;14.15;7.75;;;15.90;99.90;;;;;;5052817;28;20100;-69
2022/09/17 00:40:15;;;;;;;15.23;8.38;;;15.90;99.90;;;;;;5050565;28;20534;-69
2022/09/17 00:42:41;;;;;;;14.50;9.02;;;15.80;99.90;;;;;;5044843;28;20108;-70
2022/09/17 00:45:08;;;;;;;15.38;9.88;;;15.80;99.90;;;;;;5043171;28;20116;-70
2022/09/17 00:47:44;;;;;;;15.43;9.20;;;15.70;99.90;;;;;;5044240;28;20021;-71
2022/09/17 00:50:20;;;;;;;15.48;9.02;;;15.80;99.90;;;;;;5032711;28;20636;-70
2022/09/17 00:52:50;;;;;;;14.93;7.93;;;15.60;99.90;;;;;;5043384;28;20039;-69
2022/09/17 00:55:27;;;;;;;14.25;8.35;;;15.70;99.90;;;;;;5041621;28;21079;-70
2022/09/17 00:57:58;;;;;;;16.33;7.97;;;15.70;99.90;;;;;;5051242;28;20681;-69
2022/09/17 01:00:25;;;;;;;14.85;8.23;;;15.70;99.90;;;;;;5043436;28;20087;-70
2022/09/17 01:02:52;;;;;;;13.73;7.55;;;15.70;99.90;;;;;;5040003;28;20017;-70
2022/09/17 01:05:39;;;;;;;15.65;8.25;;;15.70;99.90;;;;;;5041178;28;20490;-70
2022/09/17 01:08:26;;;;;;;14.27;8.27;;;15.70;99.90;;;;;;5049948;28;20085;-72
2022/09/17 01:10:54;;;;;;;13.20;7.60;;;15.60;99.90;;;;;;5041931;28;20112;-70
2022/09/17 01:13:46;;;;;;;13.32;7.70;;;15.70;99.90;;;;;;5031544;28;20087;-70
2022/09/17 01:16:56;;;;;;;13.15;7.53;;;15.70;99.90;;;;;;5037305;28;20037;-69
2022/09/17 01:19:39;;;;;;;12.93;6.40;;;15.50;99.90;;;;;;5010429;28;20038;-70
2022/09/17 01:22:07;;;;;;;9.77;5.95;;;15.40;99.90;;;;;;5011897;28;20029;-70
2022/09/17 01:25:03;;;;;;;8.93;5.13;;;15.30;99.90;;;;;;5008618;28;20026;-70
2022/09/17 01:28:02;;;;;;;4.53;2.90;;;15.20;99.90;;;;;;5012767;28;20053;-70
2022/09/17 01:30:50;;;;;;;6.70;3.70;;;15.10;99.90;;;;;;5010602;28;20038;-70
2022/09/17 01:33:38;;;;;;;3.85;2.42;;;15.00;99.90;;;;;;5010984;28;20405;-71
2022/09/17 01:36:30;;;;;;;3.78;2.55;;;15.00;99.90;;;;;;5008503;28;20472;-71
2022/09/17 01:39:02;;;;;;;3.85;2.03;;;15.00;99.90;;;;;;5020944;28;20057;-71
2022/09/17 01:41:47;;;;;;;4.18;2.60;;;15.00;99.90;;;;;;5008638;28;20045;-71
2022/09/17 01:44:30;;;;;;;5.88;2.50;;;15.00;99.90;;;;;;5009703;28;20192;-72
2022/09/17 01:47:26;;;;;;;4.40;2.55;;;14.80;99.90;;;;;;5016813;28;20033;-70
2022/09/17 01:49:59;;;;;;;4.97;2.85;;;14.80;99.90;;;;;;5013837;28;20041;-71
2022/09/17 01:52:27;;;;;;;2.85;2.35;;;14.70;99.90;;;;;;5009585;28;20026;-70
2022/09/17 01:54:57;;;;;;;3.17;2.08;;;14.60;99.90;;;;;;5013576;28;20033;-69
2022/09/17 01:57:39;;;;;;;4.15;2.08;;;14.60;99.90;;;;;;5034270;28;20026;-70
2022/09/17 02:00:10;;;;;;;4.43;2.07;;;14.50;99.90;;;;;;5037033;28;20066;-69
2022/09/17 02:03:03;;;;;;;6.28;2.00;;;14.40;99.90;;;;;;5030590;28;20741;-71
2022/09/17 02:06:00;;;;;;;3.22;2.15;;;14.40;99.90;;;;;;5030790;28;20475;-71
2022/09/17 02:08:34;;;;;;;3.22;2.00;;;14.30;99.90;;;;;;5032172;28;20552;-70
2022/09/17 02:11:13;;;;;;;7.20;2.85;;;14.30;99.90;;;;;;5029164;28;20032;-70
2022/09/17 02:13:44;;;;;;;3.65;2.08;;;14.30;99.90;;;;;;5030176;28;20104;-70
2022/09/17 02:16:18;;;;;;;5.10;2.78;;;14.30;99.90;;;;;;5030169;28;20368;-70
2022/09/17 02:18:54;;;;;;;7.95;3.97;;;14.20;99.90;;;;;;5030154;28;20067;-72
2022/09/17 02:21:35;;;;;;;5.68;3.58;;;14.00;99.90;;;;;;5032406;28;20057;-70
2022/09/17 02:24:02;;;;;;;6.95;3.58;;;13.80;99.90;;;;;;5029607;28;20090;-70
2022/09/17 02:26:29;;;;;;;10.10;4.15;;;13.90;99.90;;;;;;5029738;28;20020;-69
2022/09/17 02:29:12;;;;;;;8.02;3.83;;;14.00;99.90;;;;;;5029768;28;20044;-70
2022/09/17 02:31:40;;;;;;;5.55;3.47;;;14.10;99.90;;;;;;5030009;28;20030;-70
2022/09/17 02:34:07;;;;;;;6.85;2.95;;;14.10;99.90;;;;;;5030282;28;20022;-70
2022/09/17 02:36:34;;;;;;;8.00;3.17;;;14.20;99.90;;;;;;5030250;28;20037;-71
2022/09/17 02:39:02;;;;;;;4.03;1.73;;;14.20;99.90;;;;;;5030006;28;20101;-70
2022/09/17 02:41:45;;;;;;;4.85;2.55;;;14.20;99.90;;;;;;5029982;28;20079;-70
2022/09/17 02:44:38;;;;;;;11.43;2.92;;;14.20;99.90;;;;;;5033695;28;20120;-70
2022/09/17 02:47:22;;;;;;;;;;;14.20;99.90;;;;;;5053153;28;20033;-70
2022/09/17 02:50:37;;;;;;;4.40;2.50;;;14.20;99.90;;;;;;5035501;28;20030;-71
2022/09/17 02:53:12;;;;;;;3.08;1.90;;;14.20;99.90;;;;;;5012097;28;20089;-70
2022/09/17 02:55:40;;;;;;;2.85;1.75;;;14.10;99.90;;;;;;5011497;28;20042;-69
2022/09/17 02:58:40;;;;;;;2.72;1.17;;;14.00;99.90;;;;;;5011612;28;20026;-70
2022/09/17 03:01:13;;;;;;;4.63;1.70;;;14.00;99.90;;;;;;5011016;28;20034;-70
2022/09/17 03:03:44;;;;;;;3.00;1.73;;;14.10;99.90;;;;;;5013630;28;20124;-70
2022/09/17 03:06:09;;;;;;;3.40;2.00;;;14.00;99.90;;;;;;5010863;28;20022;-71
2022/09/17 03:08:39;;;;;;;3.22;1.70;;;14.10;99.90;;;;;;5010778;28;20595;-70
2022/09/17 03:11:07;;;;;;;3.15;1.60;;;14.00;99.90;;;;;;5012633;28;20029;-69
2022/09/17 03:13:34;;;;;;;3.33;1.83;;;14.00;99.90;;;;;;5011443;28;20022;-70
2022/09/17 03:16:03;;;;;;;2.55;1.67;;;14.00;99.90;;;;;;5010975;28;20048;-69
2022/09/17 03:18:29;;;;;;;2.17;1.50;;;13.90;99.90;;;;;;5022752;28;20022;-71
2022/09/17 03:20:55;;;;;;;2.22;1.38;;;13.90;99.90;;;;;;5032140;28;20124;-71
2022/09/17 03:23:20;;;;;;;3.47;1.50;;;13.90;99.90;;;;;;5031144;28;20021;-71
2022/09/17 03:25:48;;;;;;;2.25;1.40;;;13.90;99.90;;;;;;5032164;28;20033;-71
2022/09/17 03:28:15;;;;;;;3.03;1.48;;;13.90;99.90;;;;;;5033003;28;20048;-70
2022/09/17 03:30:43;;;;;;;3.63;1.90;;;13.90;99.90;;;;;;5034638;28;20534;-70
2022/09/17 03:33:09;;;;;;;1.88;1.20;;;13.90;99.90;;;;;;5034278;28;20530;-71
2022/09/17 03:35:34;;;;;;;2.05;1.50;;;13.90;99.90;;;;;;5034147;28;20021;-70
2022/09/17 03:38:00;;;;;;;1.83;1.40;;;13.90;99.90;;;;;;5034043;28;20048;-70
2022/09/17 03:40:26;;;;;;;4.38;1.83;;;14.00;99.90;;;;;;5034203;28;20033;-70
2022/09/17 03:42:52;;;;;;;2.40;1.67;;;14.00;99.90;;;;;;5033996;28;20040;-70
2022/09/17 03:45:18;;;;;;;3.78;2.00;;;14.00;99.90;;;;;;5034118;28;20041;-71
2022/09/17 03:47:43;;;;;;;2.58;1.33;;;14.10;99.90;;;;;;5034464;28;20021;-71
2022/09/17 03:50:09;;;;;;;2.95;2.13;;;14.20;99.90;;;;;;5033802;28;20471;-70
2022/09/17 03:52:35;;;;;;;4.18;1.90;;;14.10;99.90;;;;;;5034075;28;20104;-71
2022/09/17 03:55:01;;;;;;;3.45;2.15;;;14.10;99.90;;;;;;5033125;28;20171;-70
2022/09/17 03:57:27;;;;;;;4.18;2.05;;;14.10;99.90;;;;;;5033914;28;20030;-71
2022/09/17 03:59:53;;;;;;;4.80;2.55;;;14.10;99.90;;;;;;5033383;28;20677;-71
2022/09/17 04:02:19;;;;;;;5.35;2.30;;;14.10;99.90;;;;;;5033771;28;20025;-71
2022/09/17 04:04:45;;;;;;;4.30;2.25;;;14.10;99.90;;;;;;5034021;28;20033;-71
2022/09/17 04:07:11;;;;;;;3.33;2.20;;;14.00;99.90;;;;;;5041542;28;20122;-71
2022/09/17 04:09:37;;;;;;;5.88;2.25;;;14.10;99.90;;;;;;5039414;28;20658;-70
2022/09/17 04:12:03;;;;;;;3.70;2.65;;;14.10;99.90;;;;;;5039948;28;20021;-71
2022/09/17 04:14:28;;;;;;;3.20;2.10;;;14.10;99.90;;;;;;5050741;28;20028;-71
2022/09/17 04:16:54;;;;;;;3.20;2.30;;;14.20;99.90;;;;;;5040889;28;20022;-70
2022/09/17 04:19:20;;;;;;;3.10;1.88;;;14.10;99.90;;;;;;5033716;28;20036;-70
2022/09/17 04:21:46;;;;;;;5.32;2.10;;;14.10;99.90;;;;;;5033274;28;20376;-70
2022/09/17 04:24:11;;;;;;;4.82;2.13;;;14.00;99.90;;;;;;5047106;28;20041;-70
2022/09/17 04:26:37;;;;;;;3.92;2.10;;;14.00;99.90;;;;;;5033538;28;20472;-70
2022/09/17 04:29:03;;;;;;;5.85;2.50;;;14.00;99.90;;;;;;5033663;28;20033;-69
2022/09/17 04:31:29;;;;;;;5.15;2.38;;;13.90;99.90;;;;;;5052665;28;20021;-69
2022/09/17 04:33:55;;;;;;;4.72;2.25;;;13.90;99.90;;;;;;5052357;28;20440;-70
2022/09/17 04:36:21;;;;;;;4.28;2.40;;;13.90;99.90;;;;;;5049882;28;20532;-71
2022/09/17 04:38:47;;;;;;;5.38;2.63;;;13.90;99.90;;;;;;5032872;28;20116;-71
2022/09/17 04:41:13;;;;;;;4.43;2.42;;;13.90;99.90;;;;;;5047207;28;20017;-71
2022/09/17 04:43:39;;;;;;;6.10;3.80;;;14.00;99.90;;;;;;5032882;28;20053;-71
2022/09/17 04:46:04;;;;;;;6.40;3.20;;;13.90;99.90;;;;;;5036852;28;20009;-71
2022/09/17 04:48:30;;;;;;;5.45;3.08;;;13.80;99.90;;;;;;5032824;28;20108;-70
2022/09/17 04:50:56;;;;;;;5.85;2.65;;;13.80;99.90;;;;;;5046416;28;20017;-71
2022/09/17 04:53:22;;;;;;;3.33;2.13;;;13.80;99.90;;;;;;5032614;28;20459;-72
2022/09/17 04:55:47;;;;;;;4.65;1.63;;;13.90;99.90;;;;;;5032686;28;20026;-71
2022/09/17 04:58:13;;;;;;;5.00;3.00;;;13.80;99.90;;;;;;5038475;28;20025;-71
2022/09/17 05:00:41;;;;;;;7.18;2.47;;;13.90;99.90;;;;;;5051011;28;20016;-69
2022/09/17 05:03:07;;;;;;;5.28;2.38;;;13.70;99.90;;;;;;5046832;28;20022;-71
2022/09/17 05:05:33;;;;;;;2.38;1.88;;;13.60;99.90;;;;;;5035280;28;20044;-71
2022/09/17 05:07:59;;;;;;;4.97;2.30;;;13.60;99.90;;;;;;5051780;28;20045;-72
2022/09/17 05:10:25;;;;;;;4.03;2.35;;;13.60;99.90;;;;;;5047178;28;20451;-70
2022/09/17 05:12:53;;;;;;;6.90;2.50;;;13.60;99.90;;;;;;5049042;28;20049;-71
2022/09/17 05:15:19;;;;;;;3.75;2.40;;;13.50;99.90;;;;;;5049874;28;20037;-71
2022/09/17 05:17:46;;;;;;;4.30;2.35;;;13.50;99.90;;;;;;5051236;28;20064;-71
2022/09/17 05:20:12;;;;;;;4.90;3.13;;;13.50;99.90;;;;;;5043348;28;20423;-69
2022/09/17 05:22:50;;;;;;;4.05;2.70;;;13.50;99.90;;;;;;5032251;28;20037;-72
2022/09/17 05:25:18;;;;;;;9.73;4.05;;;13.50;99.90;;;;;;5038419;28;20081;-69
2022/09/17 05:27:44;;;;;;;5.40;3.20;;;13.50;99.90;;;;;;5037140;28;20029;-69
2022/09/17 05:30:11;;;;;;;5.20;3.47;;;13.60;99.90;;;;;;5034569;28;20034;-69
2022/09/17 05:32:38;;;;;;;6.70;4.35;;;13.70;99.90;;;;;;5052171;28;20025;-70
2022/09/17 05:35:04;;;;;;;8.68;4.07;;;13.70;99.90;;;;;;5049734;28;20091;-70
2022/09/17 05:37:30;;;;;;;6.72;3.75;;;13.70;99.90;;;;;;5031819;28;20064;-71
2022/09/17 05:39:56;;;;;;;7.13;4.07;;;13.70;99.90;;;;;;5031739;28;20112;-71
2022/09/17 05:42:22;;;;;;;9.30;4.43;;;13.70;99.90;;;;;;5034664;28;20479;-71
2022/09/17 05:44:48;;;;;;;8.63;5.10;;;13.70;99.90;;;;;;5051568;28;20052;-70
2022/09/17 05:47:14;;;;;;;12.43;6.50;;;13.60;99.90;;;;;;5047468;28;20068;-71
2022/09/17 05:49:39;;;;;;;16.65;6.60;;;13.70;99.90;;;;;;5031082;28;20112;-71
2022/09/17 05:52:05;;;;;;;14.10;6.72;;;13.70;99.90;;;;;;5030444;28;20032;-71
2022/09/17 05:54:31;;;;;;;10.75;6.43;;;13.70;99.90;;;;;;5038071;28;20033;-69
2022/09/17 05:56:57;;;;;;;9.75;5.35;;;13.70;99.90;;;;;;5031835;28;20028;-71
2022/09/17 05:59:23;;;;;;;6.50;3.58;;;13.60;99.90;;;;;;5051431;28;20025;-70
2022/09/17 06:01:49;;;;;;;8.23;4.85;;;13.60;99.90;;;;;;5038965;28;20021;-71
2022/09/17 06:04:16;;;;;;;6.18;3.97;;;13.70;99.90;;;;;;5031126;28;20102;-70
2022/09/17 06:06:43;;;;;;;7.10;3.80;;;13.70;99.90;;;;;;5035619;28;20395;-70
2022/09/17 06:09:09;;;;;;;7.30;4.25;;;13.70;99.90;;;;;;5047115;28;20040;-70
2022/09/17 06:11:35;;;;;;;8.70;4.43;;;13.70;99.90;;;;;;5049267;28;20021;-70
2022/09/17 06:14:01;;;;;;;9.27;4.28;;;13.70;99.90;;;;;;5033795;28;20136;-71
2022/09/17 06:16:28;;;;;;;7.95;4.35;;;13.90;99.90;;;;;;5027639;28;20021;-71
2022/09/17 06:18:54;;;;;;;9.60;4.55;;;13.80;99.90;;;;;;5032986;28;20025;-71
2022/09/17 06:21:21;;;;;;;8.57;3.80;;;13.80;99.90;;;;;;5031142;28;20026;-70
2022/09/17 06:23:48;;;;;;;6.75;3.95;;;13.90;99.90;;;;;;5031457;28;20076;-71
2022/09/17 06:26:15;;;;;;;5.80;3.22;;;13.90;99.90;;;;;;5030504;28;20018;-71
2022/09/17 06:28:41;;;;;;;6.57;4.03;;;13.80;99.90;;;;;;5028259;28;20075;-72
2022/09/17 06:31:08;;;;;;;7.40;3.85;;;13.90;99.90;;;;;;5032747;28;20025;-69
2022/09/17 06:33:35;;;;;;;5.90;4.07;;;13.90;99.90;;;;;;5034802;28;20017;-70
2022/09/17 06:36:09;;;;;;;6.25;4.38;;;14.00;99.90;;;;;;5047753;28;20033;-72
2022/09/17 06:38:35;;;;;;;6.03;3.80;;;13.90;99.90;;;;;;5039724;28;20028;-71
2022/09/17 06:41:02;;;;;;;6.63;3.80;;;13.90;99.90;;;;;;5036910;28;20022;-72
2022/09/17 06:43:29;;;;;;;7.45;4.47;;;13.90;99.90;;;;;;5034355;28;20021;-71
2022/09/17 06:45:56;;;;;;;8.90;4.93;;;13.90;99.90;;;;;;5038724;28;20032;-71
2022/09/17 06:48:23;;;;;;;10.60;4.70;;;13.90;99.90;;;;;;5044406;28;20083;-71
2022/09/17 06:50:50;;;;;;;7.78;3.97;;;14.00;99.90;;;;;;5043641;28;20013;-71
2022/09/17 06:53:16;;;;;;;5.63;3.42;;;14.00;99.90;;;;;;5034199;28;20023;-71
2022/09/17 06:55:42;;;;;;;7.32;3.60;;;14.10;99.90;;;;;;5043806;28;20449;-71
2022/09/17 06:58:08;;;;;;;5.53;3.95;;;14.10;99.90;;;;;;5035327;28;20044;-71
2022/09/17 07:00:35;;;;;;;6.43;3.70;;;14.10;99.90;;;;;;5031489;28;20022;-71
2022/09/17 07:03:01;;;;;;;8.18;4.18;;;14.20;99.90;;;;;;5043673;28;20025;-71
2022/09/17 07:05:28;;;;;;;6.72;4.03;;;14.30;99.90;;;;;;5031334;28;20025;-71
2022/09/17 07:07:54;;;;;;;7.53;3.63;;;14.30;99.90;;;;;;5044561;28;20040;-71
2022/09/17 07:10:25;;;;;;;6.22;3.67;;;14.30;99.90;;;;;;5030612;28;20029;-70
2022/09/17 07:12:52;;;;;;;6.95;4.22;;;14.40;99.90;;;;;;5030925;28;20435;-71
2022/09/17 07:15:18;;;;;;;7.55;4.70;;;14.40;99.90;;;;;;5030717;28;20468;-71
2022/09/17 07:17:44;;;;;;;9.00;4.50;;;14.40;99.90;;;;;;5033237;28;20033;-71
2022/09/17 07:20:10;;;;;;;7.07;4.15;;;14.50;99.90;;;;;;5030157;28;20071;-71
2022/09/17 07:22:36;;;;;;;7.50;4.93;;;14.50;99.90;;;;;;5029958;28;20029;-72
2022/09/17 07:25:02;;;;;;;9.23;4.72;;;14.50;99.90;;;;;;5031523;28;20049;-70
2022/09/17 07:27:29;;;;;;;8.57;4.38;;;14.50;99.90;;;;;;5050000;28;20474;-70
2022/09/17 07:29:56;;;;;;;9.02;5.35;;;14.50;99.90;;;;;;5043315;28;20037;-71
2022/09/17 07:32:22;;;;;;;8.07;5.05;;;14.40;99.90;;;;;;5047439;28;20029;-71
2022/09/17 07:34:48;;;;;;;10.70;6.20;;;14.50;99.90;;;;;;5037081;28;20049;-71
2022/09/17 07:37:14;;;;;;;10.63;5.90;;;14.60;99.90;;;;;;5034213;28;20053;-71
2022/09/17 07:39:41;;;;;;;11.05;6.60;;;14.60;99.90;;;;;;5041244;28;20368;-72
2022/09/17 07:42:07;;;;;;;10.60;6.68;;;14.60;99.90;;;;;;5050267;28;20486;-72
2022/09/17 07:44:33;;;;;;;12.55;7.22;;;14.60;99.90;;;;;;5044878;28;20387;-71
2022/09/17 07:46:59;;;;;;;13.25;6.85;;;14.80;99.90;;;;;;5053020;28;20036;-72
2022/09/17 07:49:25;;;;;;;9.38;5.35;;;14.80;99.90;;;;;;5052409;28;20025;-71
2022/09/17 07:51:51;;;;;;;11.20;5.78;;;14.80;99.90;;;;;;5037031;28;20654;-70
2022/09/17 07:54:16;;;;;;;9.20;5.63;;;14.70;99.90;;;;;;5040244;28;20028;-71
2022/09/17 07:56:43;;;;;;;9.60;5.05;;;14.80;99.90;;;;;;5039079;28;20021;-71
2022/09/17 07:59:09;;;;;;;9.80;6.03;;;14.90;99.90;;;;;;5035265;28;20145;-70
2022/09/17 08:01:35;;;;;;;8.13;4.78;;;14.90;99.90;;;;;;5033170;28;20702;-71
2022/09/17 08:04:02;;;;;;;10.57;5.55;;;15.00;99.90;;;;;;5033020;28;20540;-71
2022/09/17 08:06:27;;;;;;;8.98;5.63;;;15.00;99.90;;;;;;5040655;28;20025;-70
2022/09/17 08:08:55;;;;;;;8.40;5.43;;;15.10;99.90;;;;;;5052641;28;20514;-71
2022/09/17 08:11:23;;;;;;;12.15;6.15;;;15.00;99.90;;;;;;5047539;28;20476;-71
2022/09/17 08:13:51;;;;;;;10.75;5.60;;;15.10;99.90;;;;;;5034051;28;20507;-71
2022/09/17 08:16:18;;;;;;;8.30;5.47;;;15.00;99.90;;;;;;5049839;28;20017;-71
2022/09/17 08:18:45;;;;;;;12.10;5.55;;;15.10;99.90;;;;;;5048720;28;20045;-71
2022/09/17 08:21:13;;;;;;;10.85;5.88;;;15.00;99.90;;;;;;5039716;28;20045;-71
2022/09/17 08:23:40;;;;;;;11.00;6.28;;;15.00;99.90;;;;;;5043831;28;20032;-71
2022/09/17 08:26:10;;;;;;;9.52;5.00;;;14.90;99.90;;;;;;5033741;28;20452;-71
2022/09/17 08:28:36;;;;;;;9.35;5.40;;;14.90;99.90;;;;;;5041628;28;20033;-70
2022/09/17 08:31:05;;;;;;;13.30;6.97;;;14.90;99.90;;;;;;5040388;28;20086;-71
2022/09/17 08:33:32;;;;;;;13.32;7.10;;;14.90;99.90;;;;;;5042965;28;20381;-71
2022/09/17 08:35:58;;;;;;;11.43;5.82;;;15.00;99.90;;;;;;5040859;28;20087;-71
2022/09/17 08:38:29;;;;;;;15.73;8.55;;;15.00;99.90;;;;;;5033107;28;20116;-70
2022/09/17 08:41:09;;;;;;;14.23;7.22;;;15.00;99.90;;;;;;5033143;28;20056;-70
2022/09/17 08:43:50;;;;;;;8.40;4.63;;;15.10;99.90;;;;;;5038104;28;20041;-71
2022/09/17 08:46:15;;;;;;;8.23;5.18;;;15.00;99.90;;;;;;5033189;28;20128;-71
2022/09/17 08:49:04;;;;;;;7.40;4.35;;;15.00;99.90;;;;;;5034333;28;20460;-71
2022/09/17 08:51:52;;;;;;;8.10;4.55;;;15.10;99.90;;;;;;5033003;28;20025;-69
2022/09/17 08:54:29;;;;;;;7.95;4.72;;;15.20;99.90;;;;;;5033321;28;20029;-71
2022/09/17 08:57:34;;;;;;;8.88;4.97;;;15.30;99.90;;;;;;5025440;28;20022;-71
2022/09/17 09:00:20;;;;;;;16.67;8.57;;;15.30;99.90;;;;;;5029572;28;20384;-71
2022/09/17 09:03:05;;;;;;;9.05;5.13;;;15.60;99.90;;;;;;5032815;28;20024;-70
2022/09/17 09:05:47;;;;;;;9.10;4.55;;;15.60;99.90;;;;;;5033596;28;20128;-70
2022/09/17 09:08:15;;;;;;;8.77;5.10;;;15.60;99.90;;;;;;5076352;28;20097;-70
2022/09/17 09:10:50;;;;;;;11.60;6.10;;;15.60;99.90;;;;;;5070072;28;20036;-70
2022/09/17 09:13:18;;;;;;;9.32;5.40;;;15.70;99.90;;;;;;5053082;28;20028;-71
2022/09/17 09:15:58;;;;;;;9.27;5.63;;;15.80;99.90;;;;;;5053183;28;20025;-70
2022/09/17 09:18:32;;;;;;;7.35;4.82;;;15.80;99.90;;;;;;5053380;28;20036;-71
2022/09/17 09:21:17;;;;;;;6.85;3.78;;;15.90;99.90;;;;;;5041875;28;20021;-71
2022/09/17 09:23:59;;;;;;;5.78;3.53;;;16.00;99.90;;;;;;5059101;28;20028;-71
2022/09/17 09:27:00;;;;;;;6.67;3.70;;;15.90;99.90;;;;;;5049508;28;20036;-71
2022/09/17 09:29:53;;;;;;;6.60;4.10;;;15.90;99.90;;;;;;5049351;28;20025;-71
2022/09/17 09:32:28;;;;;;;;;;;15.90;99.90;;;;;;5059108;28;20104;-69
2022/09/17 09:34:55;;;;;;;10.20;5.65;;;15.90;99.90;;;;;;5056404;28;20374;-70
2022/09/17 09:37:26;;;;;;;7.72;4.72;;;15.90;99.90;;;;;;5055497;28;20475;-70
2022/09/17 09:39:55;;;;;;;9.50;5.43;;;16.00;99.90;;;;;;5046125;28;20491;-69
2022/09/17 09:42:36;;;;;;;7.47;3.53;;;16.10;99.90;;;;;;5073734;28;20541;-69
2022/09/17 09:45:13;;;;;;;7.20;3.20;;;16.20;99.90;;;;;;5069406;28;20075;-71
2022/09/17 09:48:08;;;;;;;7.57;3.38;;;16.30;99.90;;;;;;5060678;28;20025;-70
2022/09/17 09:51:01;;;;;;;8.65;3.42;;;16.40;99.90;;;;;;5050997;28;20119;-70
2022/09/17 09:54:10;;;;;;;4.50;3.05;;;16.40;99.90;;;;;;5062841;28;20021;-71
2022/09/17 09:56:58;;;;;;;8.60;3.50;;;16.40;99.90;;;;;;5064663;28;20497;-71
2022/09/17 09:59:25;;;;;;;5.35;3.30;;;16.50;99.90;;;;;;5083942;28;20115;-69
2022/09/17 10:01:51;;;;;;;6.40;3.65;;;16.70;99.90;;;;;;5073261;28;20494;-70
2022/09/17 10:04:21;;;;;;;6.25;3.10;;;16.60;99.90;;;;;;5071375;28;20033;-69
2022/09/17 10:06:51;;;;;;;5.25;3.45;;;16.70;99.90;;;;;;5070415;28;20048;-71
2022/09/17 10:09:20;;;;;;;6.78;3.30;;;16.80;99.90;;;;;;5060705;28;20068;-70
2022/09/17 10:12:05;;;;;;;5.30;2.88;;;16.70;99.90;;;;;;5063806;28;20060;-70
2022/09/17 10:14:36;;;;;;;6.78;3.65;;;16.80;99.90;;;;;;5059134;28;20021;-71
2022/09/17 10:17:13;;;;;;;5.78;3.38;;;16.80;99.90;;;;;;5055665;28;20037;-70
2022/09/17 10:19:40;;;;;;;5.85;2.85;;;16.70;99.90;;;;;;5065671;28;20106;-71
2022/09/17 10:22:25;;;;;;;6.30;3.22;;;16.70;99.90;;;;;;5064009;28;20021;-70
2022/09/17 10:24:53;;;;;;;7.40;3.88;;;16.70;99.90;;;;;;5051449;28;20475;-70
2022/09/17 10:27:21;;;;;;;5.85;3.97;;;16.80;99.90;;;;;;5070941;28;20100;-71
2022/09/17 10:29:50;;;;;;;7.78;3.72;;;16.90;99.90;;;;;;5084405;28;20047;-71
2022/09/17 10:32:18;;;;;;;7.00;3.50;;;16.90;99.90;;;;;;5068413;28;20021;-70
2022/09/17 10:35:05;;;;;;;8.00;4.55;;;16.80;99.90;;;;;;5075949;28;20103;-71
2022/09/17 10:37:42;;;;;;;5.50;3.25;;;16.80;99.90;;;;;;5057568;28;20029;-71
2022/09/17 10:40:34;;;;;;;7.82;3.95;;;16.80;99.90;;;;;;5057557;28;20120;-71
2022/09/17 10:43:17;;;;;;;8.20;4.55;;;16.90;99.90;;;;;;5048656;28;20041;-71
2022/09/17 10:45:54;;;;;;;11.40;4.15;;;16.80;99.90;;;;;;5051419;28;20044;-71
2022/09/17 10:48:21;;;;;;;11.02;5.45;;;16.70;99.90;;;;;;5050012;28;20025;-71
2022/09/17 10:50:54;;;;;;;11.30;5.50;;;16.60;99.90;;;;;;5048780;28;20048;-71
2022/09/17 10:53:24;;;;;;;6.68;3.97;;;16.60;99.90;;;;;;5050786;28;20471;-70
2022/09/17 10:56:05;;;;;;;9.23;5.43;;;16.60;99.90;;;;;;5050353;28;20025;-71
2022/09/17 10:58:56;;;;;;;7.63;4.43;;;16.70;99.90;;;;;;5051113;28;20103;-71
2022/09/17 11:01:44;;;;;;;8.60;4.97;;;16.50;99.90;;;;;;5050994;28;20086;-71
2022/09/17 11:04:48;;;;;;;11.52;5.22;;;16.50;99.90;;;;;;5055058;28;20483;-70
2022/09/17 11:07:34;;;;;;;7.18;3.85;;;16.40;99.90;;;;;;4993385;28;20591;-72
2022/09/17 11:10:05;;;;;;;7.57;4.22;;;16.40;99.90;;;;;;4993439;28;20050;-71
2022/09/17 11:13:03;;;;;;;9.15;5.05;;;16.30;99.90;;;;;;4993038;28;20042;-71
2022/09/17 11:15:50;;;;;;;8.38;4.97;;;16.30;99.90;;;;;;4989351;28;20124;-71
2022/09/17 11:18:33;;;;;;;9.75;5.30;;;16.20;99.90;;;;;;4991447;28;20033;-71
2022/09/17 11:21:18;;;;;;;14.30;5.57;;;16.30;99.90;;;;;;4992653;28;20481;-72
2022/09/17 11:24:04;;;;;;;11.00;5.63;;;16.30;99.90;;;;;;4992549;28;20037;-71
2022/09/17 11:27:11;;;;;;;12.02;5.50;;;16.30;99.90;;;;;;4993005;28;20061;-71
2022/09/17 11:29:54;;;;;;;13.25;6.68;;;16.20;99.90;;;;;;4984657;28;20393;-71
2022/09/17 11:32:49;;;;;;;11.95;6.45;;;16.30;99.90;;;;;;4993227;28;20041;-71
2022/09/17 11:35:25;;;;;;;8.77;4.80;;;16.30;99.90;;;;;;4993203;28;20038;-71
2022/09/17 11:38:01;;;;;;;13.63;6.32;;;16.30;99.90;;;;;;4992812;28;20040;-71
2022/09/17 11:41:11;;;;;;;10.38;6.28;;;16.30;99.90;;;;;;5006417;28;20113;-71
2022/09/17 11:43:53;;;;;;;17.35;10.13;;;16.20;99.90;;;;;;5031274;28;20060;-71
2022/09/17 11:46:26;;;;;;;14.07;7.57;;;16.20;99.90;;;;;;5031692;28;20041;-71
2022/09/17 11:49:01;;;;;;;11.02;6.90;;;16.10;99.90;;;;;;5030629;28;20049;-69
2022/09/17 11:51:33;;;;;;;9.90;6.28;;;16.00;99.90;;;;;;5024970;28;20026;-71
2022/09/17 11:54:23;;;;;;;8.35;4.72;;;15.90;99.90;;;;;;5020777;28;20054;-71
2022/09/17 11:56:52;;;;;;;6.30;3.10;;;15.70;99.90;;;;;;5032174;28;20033;-70
2022/09/17 11:59:26;;;;;;;6.85;4.10;;;15.50;99.90;;;;;;5018594;28;20379;-70
2022/09/17 12:01:59;;;;;;;4.65;3.53;;;15.30;99.90;;;;;;5030933;28;20539;-70
2022/09/17 12:04:46;;;;;;;8.20;4.88;;;14.90;99.90;;;;;;5014112;28;20053;-70
2022/09/17 12:07:38;;;;;;;10.32;5.07;;;14.70;99.90;;;;;;5030784;28;20045;-72
2022/09/17 12:10:19;;;;;;;8.23;4.20;;;14.80;99.90;;;;;;5031781;28;20522;-72
2022/09/17 12:12:57;;;;;;;6.05;3.90;;;14.80;99.90;;;;;;5031542;28;20472;-71
2022/09/17 12:15:28;;;;;;;8.90;4.55;;;14.70;99.90;;;;;;5030525;28;20025;-70
2022/09/17 12:18:24;;;;;;;5.80;3.87;;;14.80;99.90;;;;;;5031596;28;20423;-71
2022/09/17 12:20:53;;;;;;;7.25;4.03;;;14.70;99.90;;;;;;5062946;28;20033;-71
2022/09/17 12:23:48;;;;;;;7.68;4.50;;;14.60;99.90;;;;;;5057506;28;20024;-71
2022/09/17 12:26:29;;;;;;;6.03;3.92;;;14.60;99.90;;;;;;5053481;28;20057;-70
2022/09/17 12:29:14;;;;;;;6.88;4.75;;;14.60;99.90;;;;;;5053715;28;20459;-70
2022/09/17 12:31:47;;;;;;;7.15;4.35;;;14.60;99.90;;;;;;5053872;28;20349;-70
2022/09/17 12:34:19;;;;;;;8.13;4.78;;;14.70;99.90;;;;;;5053374;28;20475;-71
2022/09/17 12:37:25;;;;;;;7.90;4.10;;;14.60;99.90;;;;;;5063906;28;20020;-70
2022/09/17 12:40:00;;;;;;;8.93;5.65;;;14.60;99.90;;;;;;5035808;28;20567;-71
2022/09/17 12:42:41;;;;;;;10.55;6.68;;;14.60;99.90;;;;;;5053123;28;20036;-71
2022/09/17 12:45:18;;;;;;;8.38;5.20;;;14.60;99.90;;;;;;5053033;28;20098;-71
2022/09/17 12:47:50;;;;;;;9.07;5.10;;;14.60;99.90;;;;;;5053601;28;20371;-71
2022/09/17 12:50:26;;;;;;;9.23;6.15;;;14.60;99.90;;;;;;5067303;28;20463;-71
2022/09/17 12:53:10;;;;;;;7.75;4.75;;;14.40;99.90;;;;;;5052982;28;20029;-71
2022/09/17 12:56:14;;;;;;;8.68;5.07;;;14.50;99.90;;;;;;5051460;28;20052;-71
2022/09/17 12:59:02;;;;;;;8.60;5.00;;;14.50;99.90;;;;;;5053116;28;20044;-70
2022/09/17 13:01:31;;;;;;;9.90;5.10;;;14.60;99.90;;;;;;5054196;28;20029;-71
2022/09/17 13:04:43;;;;;;;9.85;5.63;;;14.60;99.90;;;;;;5052592;28;20083;-71
2022/09/17 13:07:31;;;;;;;10.63;5.80;;;14.50;99.90;;;;;;4969951;28;20058;-70
2022/09/17 13:10:24;;;;;;;8.02;4.60;;;14.60;99.90;;;;;;4970842;28;20034;-71
2022/09/17 13:12:57;;;;;;;9.75;5.50;;;14.50;99.90;;;;;;4968321;28;20037;-71
2022/09/17 13:15:25;;;;;;;7.88;4.50;;;14.50;99.90;;;;;;4972162;28;20110;-70
2022/09/17 13:17:51;;;;;;;6.47;3.92;;;14.40;99.90;;;;;;4989893;28;20636;-71